Time;durP1;ratioP1;P1;durP2;ratioP2;P2;SDS_P1;SDS_P2;PMS_P1;PMS_P2;Temp;Humidity;BMP_temperature;BMP_pressure;BME280_temperature;BME280_humidity;BME280_pressure;Samples;Min_cycle;Max_cycle;Signal;HPM_P1;HPM_P2
2024/01/08 00:00:30;;;;;;;3.53;3.00;;;;;;;-1.34;71.22;100982.31;2553760;28;20330;-81
2024/01/08 00:01:50;;;;;;;3.60;2.47;;;;;;;-1.33;71.41;100976.38;2546732;28;20041;-81
2024/01/08 00:03:05;;;;;;;2.95;2.65;;;;;;;-1.33;71.47;100978.94;2547314;28;20307;-82
2024/01/08 00:04:18;;;;;;;3.10;2.72;;;;;;;-1.34;71.46;100982.31;2546925;28;20276;-83
2024/01/08 00:05:32;;;;;;;3.25;2.88;;;;;;;-1.32;71.27;100987.50;2547506;28;20350;-82
2024/01/08 00:06:46;;;;;;;3.17;2.88;;;;;;;-1.32;71.16;100985.84;2546535;28;20044;-80
2024/01/08 00:08:00;;;;;;;3.03;2.25;;;;;;;-1.31;71.46;100984.16;2549763;28;20040;-81
2024/01/08 00:09:14;;;;;;;3.05;2.53;;;;;;;-1.33;71.34;100983.19;2551584;28;20329;-81
2024/01/08 00:10:27;;;;;;;2.63;2.15;;;;;;;-1.33;71.03;100984.06;2546853;28;20056;-82
2024/01/08 00:11:42;;;;;;;3.25;2.55;;;;;;;-1.33;71.21;100981.50;2546048;28;20276;-81
2024/01/08 00:12:57;;;;;;;4.47;3.10;;;;;;;-1.32;71.49;100979.81;2550200;28;20060;-82
2024/01/08 00:14:11;;;;;;;2.95;2.65;;;;;;;-1.32;71.52;100978.16;2552964;28;20311;-81
2024/01/08 00:15:25;;;;;;;2.95;2.65;;;;;;;-1.30;71.66;100974.78;2545772;28;20291;-80
2024/01/08 00:16:44;;;;;;;3.15;2.50;;;;;;;-1.32;71.66;100978.16;2554624;28;20732;-81
2024/01/08 00:17:58;;;;;;;4.28;2.53;;;;;;;-1.31;70.90;100979.03;2546815;28;20482;-80
2024/01/08 00:19:12;;;;;;;3.30;2.85;;;;;;;-1.31;71.00;100984.16;2546451;28;20303;-80
2024/01/08 00:20:26;;;;;;;4.43;2.58;;;;;;;-1.30;70.77;100979.91;2546304;28;20077;-80
2024/01/08 00:21:41;;;;;;;3.03;2.30;;;;;;;-1.30;71.08;100983.31;2546509;28;20307;-81
2024/01/08 00:22:54;;;;;;;2.92;2.63;;;;;;;-1.31;70.98;100981.59;2546451;28;20052;-82
2024/01/08 00:24:09;;;;;;;2.90;2.58;;;;;;;-1.30;71.03;100975.66;2549527;28;20719;-82
2024/01/08 00:25:22;;;;;;;4.70;3.53;;;;;;;-1.32;70.86;100978.16;2550691;28;20059;-81
2024/01/08 00:26:37;;;;;;;3.10;2.63;;;;;;;-1.30;70.82;100980.75;2546457;28;20363;-80
2024/01/08 00:27:50;;;;;;;4.38;2.63;;;;;;;-1.31;70.47;100981.59;2538215;28;20048;-80
2024/01/08 00:29:06;;;;;;;3.53;3.17;;;;;;;-1.29;70.97;100984.19;2547143;28;20337;-81
2024/01/08 00:30:19;;;;;;;2.90;2.60;;;;;;;-1.29;70.81;100986.75;2547179;28;20520;-80
2024/01/08 00:31:34;;;;;;;3.88;2.95;;;;;;;-1.29;70.83;100981.63;2545664;28;20366;-80
2024/01/08 00:32:47;;;;;;;4.00;2.70;;;;;;;-1.28;70.59;100978.28;2546656;28;20056;-81
2024/01/08 00:34:02;;;;;;;3.17;2.88;;;;;;;-1.29;70.92;100979.06;2547815;28;20394;-81
2024/01/08 00:35:15;;;;;;;4.20;2.97;;;;;;;-1.29;70.57;100972.28;2551781;28;20334;-81
2024/01/08 00:36:32;;;;;;;3.65;3.05;;;;;;;-1.29;70.82;100979.06;2549373;28;20312;-82
2024/01/08 00:37:45;;;;;;;4.80;3.03;;;;;;;-1.29;71.05;100979.97;2546546;28;20082;-81
2024/01/08 00:39:00;;;;;;;3.95;3.05;;;;;;;-1.28;70.84;100968.91;2547667;28;20366;-82
2024/01/08 00:40:13;;;;;;;3.63;3.13;;;;;;;-1.28;70.87;100974.03;2540509;28;20046;-80
2024/01/08 00:41:28;;;;;;;7.25;3.80;;;;;;;-1.27;70.43;100990.25;2543441;28;20658;-83
2024/01/08 00:42:41;;;;;;;3.17;2.47;;;;;;;-1.28;70.78;100973.16;2546231;28;20049;-81
2024/01/08 00:43:56;;;;;;;5.22;2.78;;;;;;;-1.27;70.76;100980.03;2548418;28;20287;-82
2024/01/08 00:45:11;;;;;;;4.45;2.92;;;;;;;-1.28;70.48;100971.47;2552882;28;20132;-83
2024/01/08 00:46:25;;;;;;;3.47;3.00;;;;;;;-1.26;70.39;100966.44;2546024;28;20649;-80
2024/01/08 00:47:39;;;;;;;4.43;2.55;;;;;;;-1.26;70.50;100974.97;2545882;28;20279;-83
2024/01/08 00:48:54;;;;;;;4.40;3.35;;;;;;;-1.26;70.41;100969.88;2547036;28;20314;-81
2024/01/08 00:50:09;;;;;;;6.32;2.67;;;;;;;-1.26;70.20;100971.56;2546207;28;20333;-81
2024/01/08 00:51:24;;;;;;;5.88;4.82;;;;;;;-1.27;70.30;100970.66;2546484;28;20334;-82
2024/01/08 00:52:37;;;;;;;4.57;4.18;;;;;;;-1.26;70.51;100961.31;2546545;28;20306;-81
2024/01/08 00:53:52;;;;;;;2.97;2.67;;;;;;;-1.24;70.71;100977.59;2547022;28;20311;-81
2024/01/08 00:55:06;;;;;;;5.72;3.40;;;;;;;-1.26;70.44;100966.44;2546311;28;20128;-83
2024/01/08 00:56:21;;;;;;;5.22;3.47;;;;;;;-1.24;70.93;100964.78;2544941;28;20286;-81
2024/01/08 00:57:34;;;;;;;4.03;2.67;;;;;;;-1.25;70.44;100975.84;2546000;28;20292;-80
2024/01/08 00:58:49;;;;;;;4.45;3.05;;;;;;;-1.26;70.98;100964.75;2547360;28;20317;-81
2024/01/08 01:00:04;;;;;;;3.20;2.65;;;;;;;-1.25;70.73;100978.41;2545683;28;20052;-79
2024/01/08 01:01:20;;;;;;;3.78;3.35;;;;;;;-1.26;70.42;100964.75;2545361;28;20418;-81
2024/01/08 01:02:40;;;;;;;4.97;2.78;;;;;;;-1.25;70.66;100969.03;2547861;28;20368;-82
2024/01/08 01:03:57;;;;;;;3.47;2.85;;;;;;;-1.24;70.59;100967.34;2538885;28;20816;-81
2024/01/08 01:05:10;;;;;;;4.60;3.25;;;;;;;-1.25;70.27;100974.16;2553641;28;20300;-81
2024/01/08 01:06:25;;;;;;;4.80;3.15;;;;;;;-1.24;70.42;100968.25;2548254;28;20307;-81
2024/01/08 01:07:38;;;;;;;3.42;3.08;;;;;;;-1.23;70.58;100976.81;2548431;28;20102;-81
2024/01/08 01:08:53;;;;;;;4.60;2.90;;;;;;;-1.22;70.69;100973.41;2549283;28;20334;-80
2024/01/08 01:10:07;;;;;;;2.75;2.50;;;;;;;-1.23;70.51;100981.94;2548918;28;20056;-82
2024/01/08 01:11:22;;;;;;;4.38;3.30;;;;;;;-1.23;70.69;100972.56;2549722;28;20310;-82
2024/01/08 01:12:35;;;;;;;4.75;3.90;;;;;;;-1.21;70.44;100972.63;2557979;28;20287;-82
2024/01/08 01:13:58;;;;;;;4.80;3.70;;;;;;;-1.22;69.88;100970.88;2549315;28;20804;-81
2024/01/08 01:15:11;;;;;;;2.50;2.20;;;;;;;-1.22;69.39;100970.88;2548692;28;20083;-81
2024/01/08 01:16:30;;;;;;;3.38;3.08;;;;;;;-1.22;69.23;100968.31;2548835;28;20072;-81
2024/01/08 01:17:43;;;;;;;3.95;2.97;;;;;;;-1.22;69.44;100978.53;2557623;28;20048;-81
2024/01/08 01:18:58;;;;;;;3.30;3.00;;;;;;;-1.22;69.16;100974.28;2549748;28;20317;-82
2024/01/08 01:20:12;;;;;;;5.28;3.17;;;;;;;-1.22;69.60;100974.28;2547230;28;20045;-82
2024/01/08 01:21:28;;;;;;;3.97;3.38;;;;;;;-1.22;69.97;100983.66;2549565;28;20296;-80
2024/01/08 01:22:41;;;;;;;2.83;2.30;;;;;;;-1.22;69.62;100981.97;2541142;28;20056;-81
2024/01/08 01:23:55;;;;;;;3.65;3.35;;;;;;;-1.22;70.07;100984.53;2555045;28;20279;-82
2024/01/08 01:25:10;;;;;;;3.75;3.40;;;;;;;-1.21;69.93;100985.44;2543359;28;20509;-81
2024/01/08 01:26:24;;;;;;;3.88;3.13;;;;;;;-1.22;69.65;100981.97;2548534;28;20303;-82
2024/01/08 01:27:38;;;;;;;4.95;3.67;;;;;;;-1.20;69.54;100987.19;2548977;28;20279;-82
2024/01/08 01:28:54;;;;;;;3.53;3.22;;;;;;;-1.21;69.69;100982.88;2549182;28;20375;-80
2024/01/08 01:30:08;;;;;;;4.65;4.20;;;;;;;-1.19;69.55;100978.66;2550328;28;20116;-80
2024/01/08 01:31:23;;;;;;;4.70;3.92;;;;;;;-1.19;69.84;100986.34;2546815;28;20308;-82
2024/01/08 01:32:37;;;;;;;3.55;3.22;;;;;;;-1.20;69.87;100987.19;2553934;28;20291;-82
2024/01/08 01:33:52;;;;;;;4.22;3.28;;;;;;;-1.19;69.88;100994.94;2548759;28;20408;-82
2024/01/08 01:35:06;;;;;;;4.25;3.42;;;;;;;-1.19;69.54;100982.13;2548889;28;20310;-80
2024/01/08 01:36:21;;;;;;;4.07;3.15;;;;;;;-1.19;69.66;100989.81;2548549;28;20821;-81
2024/01/08 01:37:34;;;;;;;5.07;2.97;;;;;;;-1.19;69.56;100986.34;2556090;28;20302;-82
2024/01/08 01:38:49;;;;;;;3.22;2.92;;;;;;;-1.18;69.46;100989.00;2549557;28;20378;-80
2024/01/08 01:40:03;;;;;;;4.00;3.28;;;;;;;-1.18;69.31;100995.81;2546611;28;20045;-81
2024/01/08 01:41:17;;;;;;;4.25;3.75;;;;;;;-1.18;69.32;100995.81;2538788;28;20336;-81
2024/01/08 01:42:31;;;;;;;3.20;2.90;;;;;;;-1.17;69.28;100992.44;2545809;28;20296;-81
2024/01/08 01:43:45;;;;;;;3.40;3.10;;;;;;;-1.17;69.72;100989.88;2547491;28;20302;-82
2024/01/08 01:44:58;;;;;;;3.67;3.00;;;;;;;-1.17;69.58;100989.88;2547884;28;20045;-81
2024/01/08 01:46:18;;;;;;;6.97;3.70;;;;;;;-1.17;69.51;100988.19;2544759;28;20331;-81
2024/01/08 01:47:32;;;;;;;4.72;3.78;;;;;;;-1.16;69.74;100989.03;2544533;28;20064;-81
2024/01/08 01:48:47;;;;;;;4.60;3.45;;;;;;;-1.16;69.39;100982.25;2556694;28;20366;-81
2024/01/08 01:50:01;;;;;;;4.60;3.35;;;;;;;-1.16;69.38;100983.94;2551257;28;20231;-81
2024/01/08 01:51:16;;;;;;;4.20;3.80;;;;;;;-1.15;69.94;100981.44;2553435;28;20307;-79
2024/01/08 01:52:29;;;;;;;2.45;2.22;;;;;;;-1.14;69.89;100987.44;2554490;28;20049;-81
2024/01/08 01:53:45;;;;;;;2.95;2.65;;;;;;;-1.15;69.72;100978.88;2559269;28;21036;-82
2024/01/08 01:54:59;;;;;;;5.10;3.20;;;;;;;-1.15;69.79;100984.00;2548754;28;20049;-82
2024/01/08 01:56:14;;;;;;;3.97;3.30;;;;;;;-1.14;69.67;100983.19;2547835;28;20279;-80
2024/01/08 01:57:27;;;;;;;5.28;3.58;;;;;;;-1.13;69.60;100978.97;2553418;28;20299;-80
2024/01/08 01:58:42;;;;;;;4.18;3.17;;;;;;;-1.13;69.61;100989.22;2550777;28;20307;-80
2024/01/08 01:59:55;;;;;;;3.47;2.65;;;;;;;-1.12;69.48;100985.81;2547275;28;20049;-80
2024/01/08 02:01:12;;;;;;;4.18;3.08;;;;;;;-1.12;69.36;100985.81;2544598;28;20375;-80
2024/01/08 02:02:27;;;;;;;5.75;3.97;;;;;;;-1.12;69.25;100984.13;2545104;28;20041;-82
2024/01/08 02:03:42;;;;;;;3.72;3.42;;;;;;;-1.12;69.53;100978.13;2557878;28;20310;-83
2024/01/08 02:04:59;;;;;;;2.42;2.22;;;;;;;-1.12;69.22;100990.94;2555126;28;20334;-81
2024/01/08 02:06:16;;;;;;;3.97;3.20;;;;;;;-1.12;69.21;100976.44;2542595;28;20660;-81
2024/01/08 02:07:30;;;;;;;5.00;2.70;;;;;;;-1.10;69.11;100985.09;2547897;28;20284;-82
2024/01/08 02:08:45;;;;;;;3.55;3.03;;;;;;;-1.10;68.88;100985.09;2548360;28;20799;-80
2024/01/08 02:09:58;;;;;;;3.58;2.72;;;;;;;-1.10;69.52;100979.97;2551031;28;20083;-81
2024/01/08 02:11:13;;;;;;;3.42;3.13;;;;;;;-1.09;69.03;100983.38;2554640;28;20776;-82
2024/01/08 02:12:26;;;;;;;2.78;2.58;;;;;;;-1.10;69.02;100979.97;2548419;28;20044;-81
2024/01/08 02:13:41;;;;;;;4.40;3.25;;;;;;;-1.09;69.12;100985.94;2548268;28;20770;-82
2024/01/08 02:14:55;;;;;;;3.67;3.38;;;;;;;-1.07;69.21;100980.91;2539816;28;20068;-81
2024/01/08 02:16:09;;;;;;;7.90;4.07;;;;;;;-1.08;68.98;100987.72;2547651;28;20422;-82
2024/01/08 02:17:23;;;;;;;5.90;3.58;;;;;;;-1.08;68.92;100982.59;2548541;28;20044;-81
2024/01/08 02:18:37;;;;;;;4.70;4.30;;;;;;;-1.07;69.05;100978.34;2548251;28;20311;-82
2024/01/08 02:19:50;;;;;;;2.70;2.50;;;;;;;-1.07;69.14;100984.34;2556018;28;20036;-82
2024/01/08 02:21:06;;;;;;;5.53;3.70;;;;;;;-1.07;69.51;100973.22;2541080;28;20661;-81
2024/01/08 02:22:20;;;;;;;3.53;3.22;;;;;;;-1.07;69.35;100968.09;2548241;28;20045;-81
2024/01/08 02:23:36;;;;;;;5.22;2.72;;;;;;;-1.06;69.45;100973.28;2547402;28;20271;-82
2024/01/08 02:24:49;;;;;;;5.32;3.75;;;;;;;-1.07;69.69;100963.84;2548581;28;20045;-81
2024/01/08 02:26:05;;;;;;;3.45;2.83;;;;;;;-1.06;69.33;100970.72;2550732;28;20403;-81
2024/01/08 02:27:18;;;;;;;4.18;3.38;;;;;;;-1.04;69.87;100970.78;2554265;28;20111;-83
2024/01/08 02:28:33;;;;;;;4.28;3.25;;;;;;;-1.05;69.90;100969.06;2547918;28;20311;-81
2024/01/08 02:29:46;;;;;;;6.22;4.28;;;;;;;-1.05;69.64;100967.34;2548707;28;20073;-82
2024/01/08 02:31:00;;;;;;;3.50;3.20;;;;;;;-1.04;69.89;100963.09;2548360;28;21045;-81
2024/01/08 02:32:14;;;;;;;4.30;3.25;;;;;;;-1.05;69.76;100964.78;2551423;28;20100;-82
2024/01/08 02:33:28;;;;;;;3.67;2.95;;;;;;;-1.05;69.39;100962.22;2553419;28;20299;-84
2024/01/08 02:34:42;;;;;;;4.07;3.78;;;;;;;-1.04;69.67;100963.09;2549004;28;20068;-83
2024/01/08 02:35:58;;;;;;;4.10;3.50;;;;;;;-1.04;69.89;100957.97;2539903;28;20284;-84
2024/01/08 02:37:12;;;;;;;4.35;3.70;;;;;;;-1.03;69.98;100955.50;2549339;28;20037;-84
2024/01/08 02:38:26;;;;;;;7.68;3.47;;;;;;;-1.03;70.17;100960.63;2495542;28;20292;-81
2024/01/08 02:39:41;;;;;;;4.15;3.55;;;;;;;-1.02;69.90;100957.25;2544574;28;20283;-83
2024/01/08 02:40:57;;;;;;;4.43;3.38;;;;;;;-1.02;69.82;100956.38;2548288;28;20303;-83
2024/01/08 02:42:13;;;;;;;5.07;3.38;;;;;;;-1.03;70.01;100952.94;2548769;28;20559;-83
2024/01/08 02:43:28;;;;;;;5.05;3.28;;;;;;;-1.02;70.25;100954.69;2547663;28;20291;-83
2024/01/08 02:44:41;;;;;;;4.15;3.40;;;;;;;-1.03;70.00;100952.94;2547673;28;20673;-82
2024/01/08 02:45:55;;;;;;;3.63;3.33;;;;;;;-1.02;70.12;100951.25;2546547;28;20307;-82
2024/01/08 02:47:09;;;;;;;3.60;3.17;;;;;;;-1.01;70.28;100952.97;2545911;28;20467;-83
2024/01/08 02:48:23;;;;;;;4.75;3.63;;;;;;;-1.02;70.36;100949.56;2547927;28;20299;-82
2024/01/08 02:49:37;;;;;;;4.72;3.42;;;;;;;-1.00;71.00;100955.63;2547113;28;20052;-82
2024/01/08 02:50:51;;;;;;;3.60;3.10;;;;;;;-1.01;70.96;100948.72;2547106;28;20394;-82
2024/01/08 02:52:05;;;;;;;5.35;3.97;;;;;;;-1.00;70.71;100958.19;2546843;28;20052;-83
2024/01/08 02:53:20;;;;;;;3.90;2.95;;;;;;;-1.00;70.63;100960.75;2547358;28;20355;-82
2024/01/08 02:54:33;;;;;;;4.75;3.33;;;;;;;-1.00;70.67;100962.44;2547501;28;20418;-83
2024/01/08 02:55:49;;;;;;;4.22;3.58;;;;;;;-0.99;70.39;100959.06;2546491;28;20370;-82
2024/01/08 02:57:04;;;;;;;3.33;3.03;;;;;;;-1.00;70.79;100965.00;2547307;28;20052;-82
2024/01/08 02:58:18;;;;;;;4.25;3.25;;;;;;;-1.01;70.55;100960.66;2547582;28;20386;-82
2024/01/08 02:59:31;;;;;;;3.92;3.28;;;;;;;-0.99;70.91;100967.63;2547222;28;20276;-83
2024/01/08 03:00:46;;;;;;;2.85;2.55;;;;;;;-0.99;71.08;100967.63;2546626;28;20326;-83
2024/01/08 03:01:59;;;;;;;6.68;3.53;;;;;;;-0.98;70.75;100969.38;2537668;28;20053;-83
2024/01/08 03:03:14;;;;;;;4.38;3.53;;;;;;;-0.98;70.81;100968.47;2544730;28;20341;-83
2024/01/08 03:04:27;;;;;;;4.53;3.60;;;;;;;-0.97;70.77;100970.25;2545530;28;20041;-83
2024/01/08 03:05:42;;;;;;;4.25;3.85;;;;;;;-0.98;70.85;100966.81;2545394;28;20663;-83
2024/01/08 03:06:55;;;;;;;3.30;2.78;;;;;;;-0.97;71.21;100971.13;2545370;28;20049;-83
2024/01/08 03:08:10;;;;;;;4.07;3.38;;;;;;;-0.97;70.53;100971.13;2544473;28;20854;-83
2024/01/08 03:09:23;;;;;;;3.88;3.55;;;;;;;-0.97;70.62;100971.13;2544762;28;20048;-83
2024/01/08 03:10:38;;;;;;;3.92;3.17;;;;;;;-0.95;70.52;100973.75;2544986;28;20683;-83
2024/01/08 03:11:52;;;;;;;3.38;3.08;;;;;;;-0.96;70.82;100977.13;2544437;28;20137;-83
2024/01/08 03:13:07;;;;;;;4.07;3.65;;;;;;;-0.96;70.91;100977.97;2544990;28;20784;-83
2024/01/08 03:14:21;;;;;;;3.83;3.00;;;;;;;-0.95;70.72;100978.88;2545374;28;20306;-83
2024/01/08 03:15:35;;;;;;;3.72;2.72;;;;;;;-0.95;70.83;100977.19;2544904;28;20354;-83
2024/01/08 03:16:49;;;;;;;5.32;4.32;;;;;;;-0.94;70.58;100976.38;2544830;28;20306;-83
2024/01/08 03:18:04;;;;;;;5.57;3.25;;;;;;;-0.94;70.93;100975.50;2545641;28;20315;-83
2024/01/08 03:19:17;;;;;;;4.30;3.17;;;;;;;-0.94;71.01;100976.38;2544316;28;20414;-83
2024/01/08 03:20:32;;;;;;;3.45;3.03;;;;;;;-0.94;70.70;100967.81;2545306;28;20390;-83
2024/01/08 03:21:45;;;;;;;4.80;3.40;;;;;;;-0.95;71.02;100979.75;2545276;28;20056;-83
2024/01/08 03:22:59;;;;;;;3.45;3.15;;;;;;;-0.94;70.94;100970.38;2545191;28;20311;-82
2024/01/08 03:24:13;;;;;;;3.15;2.83;;;;;;;-0.94;70.53;100971.25;2544216;28;20041;-83
2024/01/08 03:25:27;;;;;;;3.53;3.15;;;;;;;-0.95;70.82;100966.94;2544662;28;20311;-82
2024/01/08 03:26:41;;;;;;;5.55;3.25;;;;;;;-0.95;70.91;100969.50;2544614;28;20413;-82
2024/01/08 03:27:56;;;;;;;3.97;3.58;;;;;;;-0.94;70.70;100971.25;2544663;28;20291;-83
2024/01/08 03:29:10;;;;;;;3.45;3.03;;;;;;;-0.94;70.45;100976.38;2545282;28;20616;-83
2024/01/08 03:30:24;;;;;;;3.22;2.92;;;;;;;-0.94;70.50;100968.69;2545537;28;20308;-83
2024/01/08 03:31:41;;;;;;;11.00;2.55;;;;;;;-0.94;70.42;100970.38;2544433;28;20040;-83
2024/01/08 03:32:55;;;;;;;3.53;3.22;;;;;;;-0.94;70.30;100972.94;2545419;28;20858;-83
2024/01/08 03:34:09;;;;;;;3.33;2.97;;;;;;;-0.93;70.46;100972.13;2546559;28;20306;-83
2024/01/08 03:35:24;;;;;;;7.55;3.88;;;;;;;-0.94;70.49;100966.13;2544344;28;20303;-82
2024/01/08 03:36:37;;;;;;;11.15;3.47;;;;;;;-0.94;70.62;100962.69;2543767;28;20490;-82
2024/01/08 03:37:52;;;;;;;3.30;2.72;;;;;;;-0.94;70.41;100966.13;2544008;28;20311;-83
2024/01/08 03:39:06;;;;;;;6.38;3.65;;;;;;;-0.94;70.52;100971.25;2544798;28;20422;-82
2024/01/08 03:40:20;;;;;;;3.60;2.78;;;;;;;-0.93;70.43;100972.13;2544424;28;20302;-82
2024/01/08 03:41:34;;;;;;;7.07;3.30;;;;;;;-0.92;70.24;100971.31;2545070;28;20068;-83
2024/01/08 03:42:48;;;;;;;4.85;3.10;;;;;;;-0.95;70.46;100966.94;2544814;28;20386;-83
2024/01/08 03:44:04;;;;;;;8.80;3.60;;;;;;;-0.93;70.64;100965.34;2536357;28;20100;-83
2024/01/08 03:45:18;;;;;;;4.53;3.42;;;;;;;-0.94;71.07;100972.94;2545410;28;20826;-83
2024/01/08 03:46:32;;;;;;;3.45;2.78;;;;;;;-0.93;71.03;100967.00;2544770;28;20295;-83
2024/01/08 03:47:46;;;;;;;3.97;3.58;;;;;;;-0.93;70.79;100967.91;2545561;28;20295;-83
2024/01/08 03:49:00;;;;;;;4.40;3.15;;;;;;;-0.91;71.23;100970.50;2545584;28;20049;-83
2024/01/08 03:50:15;;;;;;;3.47;2.47;;;;;;;-0.91;70.55;100976.50;2551843;28;20330;-83
2024/01/08 03:51:30;;;;;;;4.63;3.33;;;;;;;-0.92;70.79;100958.50;2544865;28;20064;-82
2024/01/08 03:52:44;;;;;;;3.53;2.70;;;;;;;-0.93;70.66;100962.78;2544836;28;20291;-82
2024/01/08 03:53:58;;;;;;;3.45;2.80;;;;;;;-0.91;70.80;100976.50;2545165;28;20704;-83
2024/01/08 03:55:13;;;;;;;4.15;3.33;;;;;;;-0.92;70.42;100969.63;2543888;28;20295;-83
2024/01/08 03:56:26;;;;;;;3.53;3.13;;;;;;;-0.91;70.64;100970.50;2544370;28;20041;-83
2024/01/08 03:57:41;;;;;;;3.47;2.35;;;;;;;-0.91;70.29;100970.50;2544664;28;20342;-83
2024/01/08 03:58:54;;;;;;;7.30;2.58;;;;;;;-0.92;70.01;100967.06;2546026;28;20049;-83
2024/01/08 04:00:11;;;;;;;2.97;2.53;;;;;;;-0.91;69.73;100968.81;2548852;28;20279;-83
2024/01/08 04:01:25;;;;;;;3.10;2.80;;;;;;;-0.91;70.07;100963.69;2539855;28;20451;-82
2024/01/08 04:02:40;;;;;;;1.80;1.70;;;;;;;-0.91;69.73;100966.25;2545539;28;20303;-83
2024/01/08 04:03:54;;;;;;;4.18;2.28;;;;;;;-0.91;70.21;100965.38;2545559;28;20077;-83
2024/01/08 04:05:09;;;;;;;3.45;2.53;;;;;;;-0.91;69.68;100963.69;2545752;28;20304;-84
2024/01/08 04:06:26;;;;;;;3.58;2.67;;;;;;;-0.90;69.85;100972.28;2545217;28;20072;-83
2024/01/08 04:07:41;;;;;;;2.70;2.30;;;;;;;-0.91;70.04;100971.38;2544986;28;20287;-83
2024/01/08 04:08:54;;;;;;;2.70;2.50;;;;;;;-0.91;70.26;100961.13;2545680;28;20334;-84
2024/01/08 04:10:09;;;;;;;3.22;2.28;;;;;;;-0.91;69.93;100971.38;2546225;28;20326;-83
2024/01/08 04:11:23;;;;;;;2.15;1.95;;;;;;;-0.91;69.74;100970.50;2544895;28;20044;-83
2024/01/08 04:12:37;;;;;;;3.58;2.67;;;;;;;-0.92;69.95;100967.06;2545891;28;20330;-83
2024/01/08 04:13:51;;;;;;;2.50;2.30;;;;;;;-0.92;69.52;100972.19;2545599;28;20056;-84
2024/01/08 04:15:06;;;;;;;3.33;2.65;;;;;;;-0.91;69.78;100965.38;2546361;28;20365;-83
2024/01/08 04:16:21;;;;;;;3.08;2.25;;;;;;;-0.90;68.92;100969.72;2545276;28;20049;-84
2024/01/08 04:17:36;;;;;;;5.95;2.60;;;;;;;-0.90;69.32;100972.28;2545863;28;20299;-83
2024/01/08 04:18:49;;;;;;;2.58;2.38;;;;;;;-0.90;69.04;100977.41;2546362;28;20668;-83
2024/01/08 04:20:05;;;;;;;3.55;1.85;;;;;;;-0.90;69.16;100977.41;2545472;28;20279;-83
2024/01/08 04:21:18;;;;;;;5.40;3.85;;;;;;;-0.89;69.35;100974.88;2546001;28;20062;-83
2024/01/08 04:22:33;;;;;;;2.78;2.50;;;;;;;-0.90;69.42;100975.72;2546339;28;20325;-83
2024/01/08 04:23:47;;;;;;;3.95;2.35;;;;;;;-0.91;69.10;100976.50;2546971;28;20044;-83
2024/01/08 04:25:01;;;;;;;4.38;2.95;;;;;;;-0.91;69.38;100971.38;2546615;28;20327;-83
2024/01/08 04:26:15;;;;;;;3.15;2.85;;;;;;;-0.92;69.18;100969.63;2545513;28;20056;-83
2024/01/08 04:27:30;;;;;;;2.75;2.25;;;;;;;-0.91;69.37;100975.63;2544572;28;20307;-83
2024/01/08 04:28:44;;;;;;;3.67;3.05;;;;;;;-0.91;69.33;100976.50;2545241;28;20135;-83
2024/01/08 04:29:58;;;;;;;3.47;2.30;;;;;;;-0.91;69.10;100978.19;2545059;28;20307;-83
2024/01/08 04:31:17;;;;;;;3.20;2.50;;;;;;;-0.90;69.28;100983.38;2544607;28;20045;-83
2024/01/08 04:32:35;;;;;;;3.65;2.70;;;;;;;-0.92;68.87;100977.31;2545817;28;20303;-84
2024/01/08 04:33:49;;;;;;;2.70;1.70;;;;;;;-0.92;68.76;100972.19;2545518;28;20316;-83
2024/01/08 04:35:04;;;;;;;2.60;2.00;;;;;;;-0.91;68.93;100975.63;2545253;28;20310;-84
2024/01/08 04:36:19;;;;;;;4.28;2.70;;;;;;;-0.92;69.15;100976.44;2545057;28;20090;-83
2024/01/08 04:37:33;;;;;;;2.63;1.95;;;;;;;-0.92;68.92;100977.31;2547285;28;20307;-83
2024/01/08 04:38:48;;;;;;;2.53;2.28;;;;;;;-0.91;68.98;100971.38;2547401;28;20407;-84
2024/01/08 04:40:02;;;;;;;3.35;2.08;;;;;;;-0.92;69.25;100985.00;2547126;28;20830;-83
2024/01/08 04:41:21;;;;;;;2.53;2.33;;;;;;;-0.92;69.45;100969.63;2547705;28;20821;-82
2024/01/08 04:42:34;;;;;;;3.53;2.88;;;;;;;-0.92;69.07;100977.31;2547468;28;20295;-83
2024/01/08 04:43:49;;;;;;;2.72;2.53;;;;;;;-0.91;68.83;100981.63;2546987;28;20289;-83
2024/01/08 04:45:04;;;;;;;2.13;1.92;;;;;;;-0.92;69.23;100977.31;2547671;28;20056;-83
2024/01/08 04:46:21;;;;;;;2.78;2.58;;;;;;;-0.91;69.15;100983.31;2547891;28;20307;-83
2024/01/08 04:47:36;;;;;;;2.92;2.40;;;;;;;-0.91;69.34;100975.63;2546824;28;20280;-83
2024/01/08 04:48:50;;;;;;;5.75;3.60;;;;;;;-0.92;69.43;100977.31;2547870;28;20310;-83
2024/01/08 04:50:05;;;;;;;2.58;2.38;;;;;;;-0.91;69.39;100971.38;2548061;28;20299;-83
2024/01/08 04:51:22;;;;;;;3.00;2.13;;;;;;;-0.92;68.77;100979.88;2548321;28;20303;-83
2024/01/08 04:52:36;;;;;;;2.30;2.10;;;;;;;-0.92;68.93;100979.88;2549731;28;20299;-83
2024/01/08 04:53:51;;;;;;;2.60;2.00;;;;;;;-0.92;68.86;100977.31;2558319;28;20390;-83
2024/01/08 04:55:05;;;;;;;2.38;2.17;;;;;;;-0.92;68.86;100974.75;2558470;28;20041;-82
2024/01/08 04:56:21;;;;;;;2.28;2.10;;;;;;;-0.91;69.08;100979.06;2548402;28;20302;-82
2024/01/08 04:57:34;;;;;;;3.20;2.75;;;;;;;-0.91;68.69;100971.38;2548418;28;20311;-82
2024/01/08 04:58:49;;;;;;;3.03;2.75;;;;;;;-0.90;68.74;100979.97;2549842;28;20772;-82
2024/01/08 05:00:04;;;;;;;3.13;2.40;;;;;;;-0.91;68.86;100973.06;2548345;28;20071;-82
2024/01/08 05:37:13;;;;;;;2.88;2.63;;;;;;;-1.08;67.14;100997.97;2355292;30;20311;-82
2024/01/08 05:38:27;;;;;;;3.08;2.45;;;;;;;-1.07;66.97;100998.84;2372640;30;20437;-83
2024/01/08 05:39:41;;;;;;;2.08;1.77;;;;;;;-1.08;66.97;101004.75;2423932;29;20321;-82
2024/01/08 05:40:55;;;;;;;3.15;2.95;;;;;;;-1.06;66.85;101010.81;2501335;28;20055;-83
2024/01/08 05:42:09;;;;;;;3.67;2.50;;;;;;;-1.08;67.04;101007.31;2549360;28;20319;-83
2024/01/08 05:43:23;;;;;;;3.72;2.78;;;;;;;-1.07;66.83;101004.84;2547839;28;20045;-83
2024/01/08 05:44:38;;;;;;;2.08;1.75;;;;;;;-1.07;66.76;100999.72;2549458;28;20694;-82
2024/01/08 05:45:51;;;;;;;4.13;3.83;;;;;;;-1.07;66.88;101012.50;2547946;28;20109;-82
2024/01/08 05:47:07;;;;;;;2.60;2.20;;;;;;;-1.06;66.48;101016.81;2548298;28;20330;-83
2024/01/08 05:48:21;;;;;;;3.85;2.90;;;;;;;-1.05;67.04;101013.47;2547561;28;20490;-83
2024/01/08 05:49:35;;;;;;;3.22;2.92;;;;;;;-1.05;66.79;101018.59;2553005;28;20298;-83
2024/01/08 05:50:49;;;;;;;2.92;2.63;;;;;;;-1.05;66.35;101007.47;2551465;28;20049;-83
2024/01/08 05:52:06;;;;;;;4.45;3.00;;;;;;;-1.06;66.13;101015.94;2545145;28;20286;-82
2024/01/08 05:53:21;;;;;;;2.75;2.47;;;;;;;-1.06;66.25;101016.81;2545325;28;20135;-82
2024/01/08 05:54:37;;;;;;;2.40;2.20;;;;;;;-1.06;66.45;101016.81;2545945;28;20303;-82
2024/01/08 05:55:50;;;;;;;3.22;2.60;;;;;;;-1.06;66.59;101014.25;2545199;28;20321;-83
2024/01/08 05:57:05;;;;;;;3.03;2.72;;;;;;;-1.05;66.51;101013.47;2548233;28;20345;-83
2024/01/08 05:58:19;;;;;;;2.83;2.58;;;;;;;-1.06;66.64;101015.94;2548080;28;20045;-83
2024/01/08 05:59:33;;;;;;;1.63;1.52;;;;;;;-1.06;66.04;101015.94;2547888;28;20267;-82
2024/01/08 06:00:47;;;;;;;5.70;1.92;;;;;;;-1.05;66.33;101018.59;2548526;28;20037;-83
2024/01/08 06:02:01;;;;;;;2.40;2.20;;;;;;;-1.05;66.34;101013.47;2547791;28;20334;-82
2024/01/08 06:03:15;;;;;;;2.30;2.10;;;;;;;-1.05;66.12;101022.84;2548281;28;20055;-82
2024/01/08 06:04:29;;;;;;;2.60;2.40;;;;;;;-1.05;66.27;101021.16;2549051;28;20307;-82
2024/01/08 06:05:43;;;;;;;2.63;2.42;;;;;;;-1.06;66.37;101024.50;2548833;28;20041;-82
2024/01/08 06:06:58;;;;;;;3.28;2.97;;;;;;;-1.06;66.42;101021.06;2547027;28;20676;-82
2024/01/08 06:08:11;;;;;;;3.65;2.75;;;;;;;-1.07;66.60;101022.75;2547462;28;20045;-82
2024/01/08 06:09:27;;;;;;;5.00;2.35;;;;;;;-1.06;66.35;101027.06;2547870;28;20323;-82
2024/01/08 06:10:41;;;;;;;2.65;2.13;;;;;;;-1.07;66.72;101025.31;2548302;28;20041;-82
2024/01/08 06:11:56;;;;;;;3.10;2.75;;;;;;;-1.07;66.95;101024.44;2547619;28;20288;-83
2024/01/08 06:13:13;;;;;;;2.58;2.38;;;;;;;-1.07;66.98;101020.19;2540190;28;20122;-82
2024/01/08 06:14:27;;;;;;;3.50;2.67;;;;;;;-1.07;66.85;101029.56;2547867;28;20371;-82
2024/01/08 06:15:41;;;;;;;3.00;2.80;;;;;;;-1.06;66.79;101021.06;2546566;28;20276;-82
2024/01/08 06:16:56;;;;;;;4.63;4.20;;;;;;;-1.07;66.52;101020.19;2547990;28;20353;-82
2024/01/08 06:18:09;;;;;;;4.93;2.75;;;;;;;-1.07;66.77;101015.06;2547257;28;20045;-82
2024/01/08 06:19:24;;;;;;;3.90;3.50;;;;;;;-1.08;66.68;101023.59;2548504;28;20298;-82
2024/01/08 06:20:38;;;;;;;2.13;1.92;;;;;;;-1.07;66.51;101030.44;2548040;28;20045;-83
2024/01/08 06:21:52;;;;;;;3.85;3.40;;;;;;;-1.08;66.85;101023.59;2556338;28;20306;-81